sensor_id;sensor_type;location;lat;lon;timestamp;P1;durP1;ratioP1;P2;durP2;ratioP2
49840;SDS011;35738;49.890;5.930;2023-11-21T00:00:11;4.38;;;3.72;;
49840;SDS011;35738;49.890;5.930;2023-11-21T00:02:40;3.60;;;3.30;;
49840;SDS011;35738;49.890;5.930;2023-11-21T00:05:08;3.50;;;3.20;;
49840;SDS011;35738;49.890;5.930;2023-11-21T00:07:34;4.38;;;3.60;;
49840;SDS011;35738;49.890;5.930;2023-11-21T00:10:01;4.50;;;3.53;;
49840;SDS011;35738;49.890;5.930;2023-11-21T00:12:27;3.80;;;3.40;;
49840;SDS011;35738;49.890;5.930;2023-11-21T00:14:55;5.40;;;3.83;;
49840;SDS011;35738;49.890;5.930;2023-11-21T00:17:23;4.10;;;3.70;;
49840;SDS011;35738;49.890;5.930;2023-11-21T00:19:50;4.97;;;3.78;;
49840;SDS011;35738;49.890;5.930;2023-11-21T00:22:18;6.70;;;4.20;;
49840;SDS011;35738;49.890;5.930;2023-11-21T00:24:45;4.70;;;4.00;;
49840;SDS011;35738;49.890;5.930;2023-11-21T00:27:11;4.53;;;4.10;;
49840;SDS011;35738;49.890;5.930;2023-11-21T00:29:37;6.60;;;4.22;;
49840;SDS011;35738;49.890;5.930;2023-11-21T00:32:05;5.00;;;4.50;;
49840;SDS011;35738;49.890;5.930;2023-11-21T00:34:32;5.60;;;4.25;;
49840;SDS011;35738;49.890;5.930;2023-11-21T00:36:58;4.93;;;4.10;;
49840;SDS011;35738;49.890;5.930;2023-11-21T00:39:25;5.20;;;4.20;;
49840;SDS011;35738;49.890;5.930;2023-11-21T00:41:52;4.93;;;4.22;;
49840;SDS011;35738;49.890;5.930;2023-11-21T00:44:19;4.53;;;3.90;;
49840;SDS011;35738;49.890;5.930;2023-11-21T00:46:45;7.38;;;4.30;;
49840;SDS011;35738;49.890;5.930;2023-11-21T00:49:12;5.93;;;4.18;;
49840;SDS011;35738;49.890;5.930;2023-11-21T00:51:39;6.63;;;3.88;;
49840;SDS011;35738;49.890;5.930;2023-11-21T00:54:05;6.50;;;4.15;;
49840;SDS011;35738;49.890;5.930;2023-11-21T00:56:32;6.28;;;4.60;;
49840;SDS011;35738;49.890;5.930;2023-11-21T00:59:00;4.75;;;4.05;;
49840;SDS011;35738;49.890;5.930;2023-11-21T01:01:26;4.40;;;3.58;;
49840;SDS011;35738;49.890;5.930;2023-11-21T01:03:52;4.20;;;3.53;;
49840;SDS011;35738;49.890;5.930;2023-11-21T01:06:20;4.07;;;3.67;;
49840;SDS011;35738;49.890;5.930;2023-11-21T01:08:46;4.75;;;4.03;;
49840;SDS011;35738;49.890;5.930;2023-11-21T01:11:12;5.47;;;3.85;;
49840;SDS011;35738;49.890;5.930;2023-11-21T01:13:39;8.27;;;4.30;;
49840;SDS011;35738;49.890;5.930;2023-11-21T01:16:06;8.25;;;4.57;;
49840;SDS011;35738;49.890;5.930;2023-11-21T01:18:32;6.25;;;4.45;;
49840;SDS011;35738;49.890;5.930;2023-11-21T01:20:59;6.28;;;4.30;;
49840;SDS011;35738;49.890;5.930;2023-11-21T01:23:28;5.65;;;4.18;;
49840;SDS011;35738;49.890;5.930;2023-11-21T01:25:55;10.50;;;4.95;;
49840;SDS011;35738;49.890;5.930;2023-11-21T01:28:22;7.97;;;4.75;;
49840;SDS011;35738;49.890;5.930;2023-11-21T01:30:48;8.02;;;5.28;;
49840;SDS011;35738;49.890;5.930;2023-11-21T01:33:15;7.97;;;5.22;;
49840;SDS011;35738;49.890;5.930;2023-11-21T01:35:42;6.63;;;4.72;;
49840;SDS011;35738;49.890;5.930;2023-11-21T01:38:08;7.65;;;4.95;;
49840;SDS011;35738;49.890;5.930;2023-11-21T01:40:35;8.48;;;5.05;;
49840;SDS011;35738;49.890;5.930;2023-11-21T01:43:01;9.15;;;5.70;;
49840;SDS011;35738;49.890;5.930;2023-11-21T01:45:31;8.75;;;5.95;;
49840;SDS011;35738;49.890;5.930;2023-11-21T01:48:00;11.45;;;6.25;;
49840;SDS011;35738;49.890;5.930;2023-11-21T01:50:27;11.68;;;6.88;;
49840;SDS011;35738;49.890;5.930;2023-11-21T01:52:54;15.88;;;8.15;;
49840;SDS011;35738;49.890;5.930;2023-11-21T01:55:21;12.98;;;8.23;;
49840;SDS011;35738;49.890;5.930;2023-11-21T01:57:50;15.02;;;8.75;;
49840;SDS011;35738;49.890;5.930;2023-11-21T02:00:17;15.25;;;9.18;;
49840;SDS011;35738;49.890;5.930;2023-11-21T02:02:45;16.38;;;9.20;;
49840;SDS011;35738;49.890;5.930;2023-11-21T02:05:15;15.95;;;8.95;;
49840;SDS011;35738;49.890;5.930;2023-11-21T02:07:44;18.65;;;9.38;;
49840;SDS011;35738;49.890;5.930;2023-11-21T02:10:11;20.90;;;9.13;;
49840;SDS011;35738;49.890;5.930;2023-11-21T02:12:45;16.15;;;8.70;;
49840;SDS011;35738;49.890;5.930;2023-11-21T02:15:12;16.55;;;9.13;;
49840;SDS011;35738;49.890;5.930;2023-11-21T02:17:41;17.27;;;8.52;;
49840;SDS011;35738;49.890;5.930;2023-11-21T02:20:10;16.85;;;9.23;;
49840;SDS011;35738;49.890;5.930;2023-11-21T02:22:41;16.48;;;8.63;;
49840;SDS011;35738;49.890;5.930;2023-11-21T02:25:08;15.43;;;8.38;;
49840;SDS011;35738;49.890;5.930;2023-11-21T02:27:35;14.70;;;8.52;;
49840;SDS011;35738;49.890;5.930;2023-11-21T02:30:02;14.43;;;8.50;;
49840;SDS011;35738;49.890;5.930;2023-11-21T02:32:30;16.80;;;8.45;;
49840;SDS011;35738;49.890;5.930;2023-11-21T02:34:58;14.55;;;8.35;;
49840;SDS011;35738;49.890;5.930;2023-11-21T02:37:27;14.40;;;7.65;;
49840;SDS011;35738;49.890;5.930;2023-11-21T02:39:53;15.68;;;7.68;;
49840;SDS011;35738;49.890;5.930;2023-11-21T02:42:20;15.55;;;8.43;;
49840;SDS011;35738;49.890;5.930;2023-11-21T02:44:46;16.73;;;8.45;;
49840;SDS011;35738;49.890;5.930;2023-11-21T02:47:12;17.48;;;8.23;;
49840;SDS011;35738;49.890;5.930;2023-11-21T02:49:39;16.33;;;8.13;;
49840;SDS011;35738;49.890;5.930;2023-11-21T02:52:07;16.75;;;8.57;;
49840;SDS011;35738;49.890;5.930;2023-11-21T02:54:33;15.40;;;8.15;;
49840;SDS011;35738;49.890;5.930;2023-11-21T02:57:02;14.40;;;8.40;;
49840;SDS011;35738;49.890;5.930;2023-11-21T02:59:29;12.88;;;7.60;;
49840;SDS011;35738;49.890;5.930;2023-11-21T03:01:55;14.77;;;7.82;;
49840;SDS011;35738;49.890;5.930;2023-11-21T03:04:23;13.77;;;7.07;;
49840;SDS011;35738;49.890;5.930;2023-11-21T03:06:49;12.30;;;7.07;;
49840;SDS011;35738;49.890;5.930;2023-11-21T03:09:16;12.75;;;7.78;;
49840;SDS011;35738;49.890;5.930;2023-11-21T03:11:42;15.95;;;7.88;;
49840;SDS011;35738;49.890;5.930;2023-11-21T03:14:09;15.45;;;7.43;;
49840;SDS011;35738;49.890;5.930;2023-11-21T03:16:36;12.60;;;7.57;;
49840;SDS011;35738;49.890;5.930;2023-11-21T03:19:04;15.70;;;8.00;;
49840;SDS011;35738;49.890;5.930;2023-11-21T03:21:31;12.43;;;7.78;;
49840;SDS011;35738;49.890;5.930;2023-11-21T03:23:57;14.65;;;8.27;;
49840;SDS011;35738;49.890;5.930;2023-11-21T03:26:26;19.40;;;8.63;;
49840;SDS011;35738;49.890;5.930;2023-11-21T03:28:52;15.05;;;8.45;;
49840;SDS011;35738;49.890;5.930;2023-11-21T03:31:19;12.80;;;7.97;;
49840;SDS011;35738;49.890;5.930;2023-11-21T03:33:46;13.32;;;8.00;;
49840;SDS011;35738;49.890;5.930;2023-11-21T03:36:13;15.40;;;8.18;;
49840;SDS011;35738;49.890;5.930;2023-11-21T03:38:41;16.25;;;7.68;;
49840;SDS011;35738;49.890;5.930;2023-11-21T03:41:07;13.18;;;7.35;;
49840;SDS011;35738;49.890;5.930;2023-11-21T03:43:36;15.73;;;7.60;;
49840;SDS011;35738;49.890;5.930;2023-11-21T03:46:04;15.93;;;7.75;;
49840;SDS011;35738;49.890;5.930;2023-11-21T03:48:30;15.95;;;8.10;;
49840;SDS011;35738;49.890;5.930;2023-11-21T03:50:57;17.58;;;8.73;;
49840;SDS011;35738;49.890;5.930;2023-11-21T03:53:23;16.65;;;8.80;;
49840;SDS011;35738;49.890;5.930;2023-11-21T03:55:49;17.48;;;8.35;;
49840;SDS011;35738;49.890;5.930;2023-11-21T03:58:16;18.92;;;8.60;;
49840;SDS011;35738;49.890;5.930;2023-11-21T04:00:42;19.38;;;8.73;;
49840;SDS011;35738;49.890;5.930;2023-11-21T04:03:08;17.63;;;8.50;;
49840;SDS011;35738;49.890;5.930;2023-11-21T04:05:35;14.00;;;7.95;;
49840;SDS011;35738;49.890;5.930;2023-11-21T04:08:01;18.13;;;9.38;;
49840;SDS011;35738;49.890;5.930;2023-11-21T04:10:28;16.30;;;8.88;;
49840;SDS011;35738;49.890;5.930;2023-11-21T04:12:55;19.75;;;9.98;;
49840;SDS011;35738;49.890;5.930;2023-11-21T04:15:21;18.52;;;9.27;;
49840;SDS011;35738;49.890;5.930;2023-11-21T04:17:47;17.80;;;9.60;;
49840;SDS011;35738;49.890;5.930;2023-11-21T04:20:19;21.30;;;9.00;;
49840;SDS011;35738;49.890;5.930;2023-11-21T04:22:45;18.90;;;9.23;;
49840;SDS011;35738;49.890;5.930;2023-11-21T04:25:12;19.30;;;9.82;;
49840;SDS011;35738;49.890;5.930;2023-11-21T04:27:39;18.75;;;9.52;;
49840;SDS011;35738;49.890;5.930;2023-11-21T04:30:06;21.83;;;10.35;;
49840;SDS011;35738;49.890;5.930;2023-11-21T04:32:33;20.48;;;10.02;;
49840;SDS011;35738;49.890;5.930;2023-11-21T04:34:59;19.00;;;9.90;;
49840;SDS011;35738;49.890;5.930;2023-11-21T04:37:26;17.08;;;8.73;;
49840;SDS011;35738;49.890;5.930;2023-11-21T04:39:52;21.85;;;9.98;;
49840;SDS011;35738;49.890;5.930;2023-11-21T04:42:18;19.90;;;9.60;;
49840;SDS011;35738;49.890;5.930;2023-11-21T04:44:45;21.55;;;10.00;;
49840;SDS011;35738;49.890;5.930;2023-11-21T04:47:11;15.93;;;9.02;;
49840;SDS011;35738;49.890;5.930;2023-11-21T04:49:41;23.50;;;10.15;;
49840;SDS011;35738;49.890;5.930;2023-11-21T04:52:08;21.38;;;10.68;;
49840;SDS011;35738;49.890;5.930;2023-11-21T04:54:36;20.67;;;10.30;;
49840;SDS011;35738;49.890;5.930;2023-11-21T04:57:02;20.70;;;10.38;;
49840;SDS011;35738;49.890;5.930;2023-11-21T04:59:29;20.70;;;10.32;;
49840;SDS011;35738;49.890;5.930;2023-11-21T05:01:55;19.73;;;9.95;;
49840;SDS011;35738;49.890;5.930;2023-11-21T05:04:22;21.73;;;9.88;;
49840;SDS011;35738;49.890;5.930;2023-11-21T05:06:49;20.65;;;9.80;;
49840;SDS011;35738;49.890;5.930;2023-11-21T05:09:15;19.85;;;9.45;;
49840;SDS011;35738;49.890;5.930;2023-11-21T05:11:42;20.27;;;9.98;;
49840;SDS011;35738;49.890;5.930;2023-11-21T05:14:08;19.35;;;9.55;;
49840;SDS011;35738;49.890;5.930;2023-11-21T05:16:35;20.63;;;10.10;;
49840;SDS011;35738;49.890;5.930;2023-11-21T05:19:01;19.33;;;9.52;;
49840;SDS011;35738;49.890;5.930;2023-11-21T05:21:28;20.92;;;10.02;;
49840;SDS011;35738;49.890;5.930;2023-11-21T05:23:56;18.30;;;8.93;;
49840;SDS011;35738;49.890;5.930;2023-11-21T05:26:22;20.30;;;9.23;;
49840;SDS011;35738;49.890;5.930;2023-11-21T05:28:49;22.45;;;9.43;;
49840;SDS011;35738;49.890;5.930;2023-11-21T05:31:16;21.50;;;10.10;;
49840;SDS011;35738;49.890;5.930;2023-11-21T05:33:42;21.48;;;9.52;;
49840;SDS011;35738;49.890;5.930;2023-11-21T05:36:09;20.30;;;9.77;;
49840;SDS011;35738;49.890;5.930;2023-11-21T05:38:36;22.48;;;9.80;;
49840;SDS011;35738;49.890;5.930;2023-11-21T05:41:02;21.88;;;9.68;;
49840;SDS011;35738;49.890;5.930;2023-11-21T05:43:30;20.05;;;10.23;;
49840;SDS011;35738;49.890;5.930;2023-11-21T05:45:57;21.52;;;10.40;;
49840;SDS011;35738;49.890;5.930;2023-11-21T05:48:23;22.17;;;10.05;;
49840;SDS011;35738;49.890;5.930;2023-11-21T05:50:49;21.65;;;10.27;;
49840;SDS011;35738;49.890;5.930;2023-11-21T05:53:16;20.15;;;10.00;;
49840;SDS011;35738;49.890;5.930;2023-11-21T05:55:43;23.02;;;10.50;;
49840;SDS011;35738;49.890;5.930;2023-11-21T05:58:09;21.55;;;10.10;;
49840;SDS011;35738;49.890;5.930;2023-11-21T06:00:36;25.92;;;10.77;;
49840;SDS011;35738;49.890;5.930;2023-11-21T06:03:03;23.17;;;10.85;;
49840;SDS011;35738;49.890;5.930;2023-11-21T06:05:30;22.77;;;10.63;;
49840;SDS011;35738;49.890;5.930;2023-11-21T06:07:58;24.08;;;10.18;;
49840;SDS011;35738;49.890;5.930;2023-11-21T06:10:26;22.63;;;11.02;;
49840;SDS011;35738;49.890;5.930;2023-11-21T06:12:52;23.65;;;10.77;;
49840;SDS011;35738;49.890;5.930;2023-11-21T06:15:19;25.77;;;10.52;;
49840;SDS011;35738;49.890;5.930;2023-11-21T06:17:47;21.52;;;9.82;;
49840;SDS011;35738;49.890;5.930;2023-11-21T06:20:18;21.45;;;10.40;;
49840;SDS011;35738;49.890;5.930;2023-11-21T06:22:46;24.33;;;10.63;;
49840;SDS011;35738;49.890;5.930;2023-11-21T06:25:13;31.63;;;11.43;;
49840;SDS011;35738;49.890;5.930;2023-11-21T06:27:40;22.25;;;10.05;;
49840;SDS011;35738;49.890;5.930;2023-11-21T06:30:07;27.17;;;11.32;;
49840;SDS011;35738;49.890;5.930;2023-11-21T06:32:35;28.75;;;11.35;;
49840;SDS011;35738;49.890;5.930;2023-11-21T06:35:02;28.10;;;10.85;;
49840;SDS011;35738;49.890;5.930;2023-11-21T06:37:30;29.23;;;10.45;;
49840;SDS011;35738;49.890;5.930;2023-11-21T06:39:58;29.98;;;11.60;;
49840;SDS011;35738;49.890;5.930;2023-11-21T06:42:25;26.83;;;10.43;;
49840;SDS011;35738;49.890;5.930;2023-11-21T06:44:51;37.97;;;11.80;;
49840;SDS011;35738;49.890;5.930;2023-11-21T06:47:20;40.58;;;10.75;;
49840;SDS011;35738;49.890;5.930;2023-11-21T06:49:46;32.40;;;10.73;;
49840;SDS011;35738;49.890;5.930;2023-11-21T06:52:14;23.38;;;9.52;;
49840;SDS011;35738;49.890;5.930;2023-11-21T06:54:40;25.92;;;10.52;;
49840;SDS011;35738;49.890;5.930;2023-11-21T06:57:07;26.95;;;10.07;;
49840;SDS011;35738;49.890;5.930;2023-11-21T06:59:33;25.25;;;10.57;;
49840;SDS011;35738;49.890;5.930;2023-11-21T07:02:00;23.88;;;10.00;;
49840;SDS011;35738;49.890;5.930;2023-11-21T07:04:26;23.35;;;9.25;;
49840;SDS011;35738;49.890;5.930;2023-11-21T07:06:53;23.38;;;9.50;;
49840;SDS011;35738;49.890;5.930;2023-11-21T07:09:20;25.80;;;9.85;;
49840;SDS011;35738;49.890;5.930;2023-11-21T07:11:48;28.08;;;9.48;;
49840;SDS011;35738;49.890;5.930;2023-11-21T07:14:15;20.00;;;9.02;;
49840;SDS011;35738;49.890;5.930;2023-11-21T07:16:43;22.02;;;9.68;;
49840;SDS011;35738;49.890;5.930;2023-11-21T07:19:09;24.00;;;9.85;;
49840;SDS011;35738;49.890;5.930;2023-11-21T07:21:35;22.52;;;10.18;;
49840;SDS011;35738;49.890;5.930;2023-11-21T07:24:02;21.17;;;8.82;;
49840;SDS011;35738;49.890;5.930;2023-11-21T07:26:29;20.83;;;8.52;;
49840;SDS011;35738;49.890;5.930;2023-11-21T07:28:55;24.08;;;9.02;;
49840;SDS011;35738;49.890;5.930;2023-11-21T07:31:22;20.67;;;8.95;;
49840;SDS011;35738;49.890;5.930;2023-11-21T07:33:50;23.75;;;9.00;;
49840;SDS011;35738;49.890;5.930;2023-11-21T07:36:17;21.23;;;8.45;;
49840;SDS011;35738;49.890;5.930;2023-11-21T07:38:50;14.48;;;7.07;;
49840;SDS011;35738;49.890;5.930;2023-11-21T07:41:16;19.52;;;8.20;;
49840;SDS011;35738;49.890;5.930;2023-11-21T07:43:56;20.33;;;8.13;;
49840;SDS011;35738;49.890;5.930;2023-11-21T07:46:22;19.77;;;8.48;;
49840;SDS011;35738;49.890;5.930;2023-11-21T07:48:50;21.10;;;8.95;;
49840;SDS011;35738;49.890;5.930;2023-11-21T07:51:18;23.42;;;8.70;;
49840;SDS011;35738;49.890;5.930;2023-11-21T07:53:45;20.80;;;8.68;;
49840;SDS011;35738;49.890;5.930;2023-11-21T07:56:11;20.95;;;8.77;;
49840;SDS011;35738;49.890;5.930;2023-11-21T07:58:39;20.80;;;8.70;;
49840;SDS011;35738;49.890;5.930;2023-11-21T08:01:05;21.08;;;8.27;;
49840;SDS011;35738;49.890;5.930;2023-11-21T08:03:32;20.35;;;8.35;;
49840;SDS011;35738;49.890;5.930;2023-11-21T08:05:59;20.98;;;8.60;;
49840;SDS011;35738;49.890;5.930;2023-11-21T08:08:26;20.35;;;8.90;;
49840;SDS011;35738;49.890;5.930;2023-11-21T08:10:52;19.60;;;8.88;;
49840;SDS011;35738;49.890;5.930;2023-11-21T08:13:26;20.30;;;9.27;;
49840;SDS011;35738;49.890;5.930;2023-11-21T08:15:54;22.50;;;8.73;;
49840;SDS011;35738;49.890;5.930;2023-11-21T08:18:20;22.85;;;9.10;;
49840;SDS011;35738;49.890;5.930;2023-11-21T08:20:47;23.60;;;9.35;;
49840;SDS011;35738;49.890;5.930;2023-11-21T08:23:14;19.77;;;9.20;;
49840;SDS011;35738;49.890;5.930;2023-11-21T08:25:42;21.85;;;9.30;;
49840;SDS011;35738;49.890;5.930;2023-11-21T08:28:08;24.23;;;9.85;;
49840;SDS011;35738;49.890;5.930;2023-11-21T08:30:35;20.60;;;9.50;;
49840;SDS011;35738;49.890;5.930;2023-11-21T08:33:01;23.00;;;10.38;;
49840;SDS011;35738;49.890;5.930;2023-11-21T08:35:29;22.33;;;9.70;;
49840;SDS011;35738;49.890;5.930;2023-11-21T08:37:56;21.85;;;9.70;;
49840;SDS011;35738;49.890;5.930;2023-11-21T08:40:23;20.42;;;9.65;;
49840;SDS011;35738;49.890;5.930;2023-11-21T08:42:49;25.65;;;12.50;;
49840;SDS011;35738;49.890;5.930;2023-11-21T08:45:18;23.02;;;10.07;;
49840;SDS011;35738;49.890;5.930;2023-11-21T08:47:45;24.65;;;10.75;;
49840;SDS011;35738;49.890;5.930;2023-11-21T08:50:12;24.73;;;10.13;;
49840;SDS011;35738;49.890;5.930;2023-11-21T08:52:39;22.50;;;10.43;;
49840;SDS011;35738;49.890;5.930;2023-11-21T08:55:07;22.75;;;10.57;;
49840;SDS011;35738;49.890;5.930;2023-11-21T08:57:38;21.75;;;9.60;;
49840;SDS011;35738;49.890;5.930;2023-11-21T09:00:06;21.85;;;10.15;;
49840;SDS011;35738;49.890;5.930;2023-11-21T09:02:43;22.65;;;10.63;;
49840;SDS011;35738;49.890;5.930;2023-11-21T09:05:10;24.08;;;11.27;;
49840;SDS011;35738;49.890;5.930;2023-11-21T09:07:38;22.45;;;10.73;;
49840;SDS011;35738;49.890;5.930;2023-11-21T09:10:05;26.88;;;11.40;;
49840;SDS011;35738;49.890;5.930;2023-11-21T09:12:34;26.35;;;12.25;;
49840;SDS011;35738;49.890;5.930;2023-11-21T09:15:02;28.00;;;12.40;;
49840;SDS011;35738;49.890;5.930;2023-11-21T09:17:28;28.67;;;12.98;;
49840;SDS011;35738;49.890;5.930;2023-11-21T09:19:55;27.92;;;12.18;;
49840;SDS011;35738;49.890;5.930;2023-11-21T09:22:23;27.60;;;12.27;;
49840;SDS011;35738;49.890;5.930;2023-11-21T09:24:51;26.77;;;12.60;;
49840;SDS011;35738;49.890;5.930;2023-11-21T09:27:18;21.38;;;11.05;;
49840;SDS011;35738;49.890;5.930;2023-11-21T09:29:45;20.58;;;10.98;;
49840;SDS011;35738;49.890;5.930;2023-11-21T09:32:14;22.08;;;10.73;;
49840;SDS011;35738;49.890;5.930;2023-11-21T09:34:42;20.55;;;9.98;;
49840;SDS011;35738;49.890;5.930;2023-11-21T09:37:08;18.50;;;10.10;;
49840;SDS011;35738;49.890;5.930;2023-11-21T09:39:35;19.48;;;10.10;;
49840;SDS011;35738;49.890;5.930;2023-11-21T09:42:04;20.42;;;9.93;;
49840;SDS011;35738;49.890;5.930;2023-11-21T09:44:44;18.45;;;9.38;;
49840;SDS011;35738;49.890;5.930;2023-11-21T09:47:13;18.30;;;9.60;;
49840;SDS011;35738;49.890;5.930;2023-11-21T09:49:40;22.25;;;11.65;;
49840;SDS011;35738;49.890;5.930;2023-11-21T09:52:06;18.80;;;8.98;;
49840;SDS011;35738;49.890;5.930;2023-11-21T09:54:35;18.05;;;8.48;;
49840;SDS011;35738;49.890;5.930;2023-11-21T09:57:02;16.58;;;7.80;;
49840;SDS011;35738;49.890;5.930;2023-11-21T09:59:30;14.15;;;7.80;;
49840;SDS011;35738;49.890;5.930;2023-11-21T10:01:56;15.88;;;8.52;;
49840;SDS011;35738;49.890;5.930;2023-11-21T10:04:25;16.42;;;8.27;;
49840;SDS011;35738;49.890;5.930;2023-11-21T10:06:53;15.82;;;8.40;;
49840;SDS011;35738;49.890;5.930;2023-11-21T10:09:19;16.25;;;8.57;;
49840;SDS011;35738;49.890;5.930;2023-11-21T10:11:46;15.55;;;8.48;;
49840;SDS011;35738;49.890;5.930;2023-11-21T10:14:13;19.20;;;9.27;;
49840;SDS011;35738;49.890;5.930;2023-11-21T10:16:40;16.75;;;8.90;;
49840;SDS011;35738;49.890;5.930;2023-11-21T10:19:09;15.77;;;8.93;;
49840;SDS011;35738;49.890;5.930;2023-11-21T10:21:40;17.98;;;8.75;;
49840;SDS011;35738;49.890;5.930;2023-11-21T10:24:07;14.77;;;8.40;;
49840;SDS011;35738;49.890;5.930;2023-11-21T10:26:33;15.63;;;8.07;;
49840;SDS011;35738;49.890;5.930;2023-11-21T10:29:16;14.32;;;8.10;;
49840;SDS011;35738;49.890;5.930;2023-11-21T10:31:43;15.02;;;7.88;;
49840;SDS011;35738;49.890;5.930;2023-11-21T10:36:37;18.20;;;9.27;;
49840;SDS011;35738;49.890;5.930;2023-11-21T10:39:04;16.92;;;8.70;;
49840;SDS011;35738;49.890;5.930;2023-11-21T10:41:30;14.50;;;8.25;;
49840;SDS011;35738;49.890;5.930;2023-11-21T10:43:57;16.77;;;7.72;;
49840;SDS011;35738;49.890;5.930;2023-11-21T10:46:23;16.25;;;8.98;;
49840;SDS011;35738;49.890;5.930;2023-11-21T10:48:52;17.70;;;9.48;;
49840;SDS011;35738;49.890;5.930;2023-11-21T10:51:20;14.23;;;8.38;;
49840;SDS011;35738;49.890;5.930;2023-11-21T10:53:46;18.80;;;9.70;;
49840;SDS011;35738;49.890;5.930;2023-11-21T10:56:14;20.08;;;10.93;;
49840;SDS011;35738;49.890;5.930;2023-11-21T10:58:50;18.00;;;8.75;;
49840;SDS011;35738;49.890;5.930;2023-11-21T11:01:18;17.60;;;9.25;;
49840;SDS011;35738;49.890;5.930;2023-11-21T11:03:45;17.60;;;10.15;;
49840;SDS011;35738;49.890;5.930;2023-11-21T11:06:12;19.33;;;10.27;;
49840;SDS011;35738;49.890;5.930;2023-11-21T11:08:39;20.23;;;10.60;;
49840;SDS011;35738;49.890;5.930;2023-11-21T11:11:06;19.92;;;10.70;;
49840;SDS011;35738;49.890;5.930;2023-11-21T11:13:33;32.25;;;14.57;;
49840;SDS011;35738;49.890;5.930;2023-11-21T11:16:00;30.02;;;12.25;;
49840;SDS011;35738;49.890;5.930;2023-11-21T11:18:28;63.28;;;23.20;;
49840;SDS011;35738;49.890;5.930;2023-11-21T11:21:01;19.42;;;10.32;;
49840;SDS011;35738;49.890;5.930;2023-11-21T11:28:47;16.05;;;9.00;;
49840;SDS011;35738;49.890;5.930;2023-11-21T11:31:39;18.27;;;9.23;;
49840;SDS011;35738;49.890;5.930;2023-11-21T11:34:23;15.50;;;7.75;;
49840;SDS011;35738;49.890;5.930;2023-11-21T11:37:08;17.48;;;9.00;;
49840;SDS011;35738;49.890;5.930;2023-11-21T11:39:35;16.55;;;8.65;;
49840;SDS011;35738;49.890;5.930;2023-11-21T11:42:02;14.77;;;8.25;;
49840;SDS011;35738;49.890;5.930;2023-11-21T11:47:22;12.25;;;7.88;;
49840;SDS011;35738;49.890;5.930;2023-11-21T11:50:00;15.60;;;7.72;;
49840;SDS011;35738;49.890;5.930;2023-11-21T11:52:37;16.63;;;8.48;;
49840;SDS011;35738;49.890;5.930;2023-11-21T11:55:08;16.48;;;8.35;;
49840;SDS011;35738;49.890;5.930;2023-11-21T11:57:36;16.83;;;8.13;;
49840;SDS011;35738;49.890;5.930;2023-11-21T12:02:36;14.43;;;7.05;;
49840;SDS011;35738;49.890;5.930;2023-11-21T12:05:11;16.77;;;7.03;;
49840;SDS011;35738;49.890;5.930;2023-11-21T12:10:15;16.85;;;7.72;;
49840;SDS011;35738;49.890;5.930;2023-11-21T12:12:45;14.27;;;7.22;;
49840;SDS011;35738;49.890;5.930;2023-11-21T12:15:12;12.05;;;7.03;;
49840;SDS011;35738;49.890;5.930;2023-11-21T12:17:40;17.92;;;7.82;;
49840;SDS011;35738;49.890;5.930;2023-11-21T12:20:07;14.20;;;7.28;;
49840;SDS011;35738;49.890;5.930;2023-11-21T12:25:10;12.60;;;7.32;;
49840;SDS011;35738;49.890;5.930;2023-11-21T12:27:46;13.20;;;7.20;;
49840;SDS011;35738;49.890;5.930;2023-11-21T12:30:16;15.52;;;7.40;;
49840;SDS011;35738;49.890;5.930;2023-11-21T12:32:43;14.02;;;7.28;;
49840;SDS011;35738;49.890;5.930;2023-11-21T12:35:10;13.85;;;7.13;;
49840;SDS011;35738;49.890;5.930;2023-11-21T12:37:37;13.48;;;6.80;;
49840;SDS011;35738;49.890;5.930;2023-11-21T12:40:05;15.52;;;7.28;;
49840;SDS011;35738;49.890;5.930;2023-11-21T12:42:32;13.02;;;6.97;;
49840;SDS011;35738;49.890;5.930;2023-11-21T12:47:35;14.65;;;6.70;;
49840;SDS011;35738;49.890;5.930;2023-11-21T12:50:02;10.43;;;5.93;;
49840;SDS011;35738;49.890;5.930;2023-11-21T12:52:29;13.13;;;5.93;;
49840;SDS011;35738;49.890;5.930;2023-11-21T12:54:55;12.07;;;6.45;;
49840;SDS011;35738;49.890;5.930;2023-11-21T12:57:25;12.35;;;6.00;;
49840;SDS011;35738;49.890;5.930;2023-11-21T12:59:56;11.52;;;5.60;;
49840;SDS011;35738;49.890;5.930;2023-11-21T13:02:25;10.35;;;5.47;;
49840;SDS011;35738;49.890;5.930;2023-11-21T13:04:52;10.75;;;5.85;;
49840;SDS011;35738;49.890;5.930;2023-11-21T13:07:20;12.82;;;6.03;;
49840;SDS011;35738;49.890;5.930;2023-11-21T13:09:47;13.00;;;6.05;;
49840;SDS011;35738;49.890;5.930;2023-11-21T13:12:13;13.02;;;6.45;;
49840;SDS011;35738;49.890;5.930;2023-11-21T13:14:40;11.85;;;6.07;;
49840;SDS011;35738;49.890;5.930;2023-11-21T13:17:06;10.90;;;6.40;;
49840;SDS011;35738;49.890;5.930;2023-11-21T13:19:32;12.82;;;6.68;;
49840;SDS011;35738;49.890;5.930;2023-11-21T13:21:59;12.85;;;5.70;;
49840;SDS011;35738;49.890;5.930;2023-11-21T13:24:28;11.48;;;6.07;;
49840;SDS011;35738;49.890;5.930;2023-11-21T13:26:54;10.18;;;5.90;;
49840;SDS011;35738;49.890;5.930;2023-11-21T13:29:20;9.02;;;5.90;;
49840;SDS011;35738;49.890;5.930;2023-11-21T13:31:47;13.90;;;6.18;;
49840;SDS011;35738;49.890;5.930;2023-11-21T13:34:16;13.57;;;6.00;;
49840;SDS011;35738;49.890;5.930;2023-11-21T13:36:49;14.23;;;6.30;;
49840;SDS011;35738;49.890;5.930;2023-11-21T13:39:20;11.45;;;5.45;;
49840;SDS011;35738;49.890;5.930;2023-11-21T13:41:47;10.52;;;5.10;;
49840;SDS011;35738;49.890;5.930;2023-11-21T13:44:21;10.88;;;5.13;;
49840;SDS011;35738;49.890;5.930;2023-11-21T13:46:55;11.52;;;5.50;;
49840;SDS011;35738;49.890;5.930;2023-11-21T13:49:24;9.80;;;4.85;;
49840;SDS011;35738;49.890;5.930;2023-11-21T13:51:51;12.85;;;5.20;;
49840;SDS011;35738;49.890;5.930;2023-11-21T13:54:21;11.60;;;5.75;;
49840;SDS011;35738;49.890;5.930;2023-11-21T13:56:50;12.10;;;5.43;;
49840;SDS011;35738;49.890;5.930;2023-11-21T13:59:17;10.65;;;5.57;;
49840;SDS011;35738;49.890;5.930;2023-11-21T14:01:51;13.32;;;5.32;;
49840;SDS011;35738;49.890;5.930;2023-11-21T14:04:27;22.83;;;11.98;;
49840;SDS011;35738;49.890;5.930;2023-11-21T14:06:56;11.60;;;5.97;;
49840;SDS011;35738;49.890;5.930;2023-11-21T14:09:23;13.05;;;5.55;;
49840;SDS011;35738;49.890;5.930;2023-11-21T14:11:52;12.73;;;5.57;;
49840;SDS011;35738;49.890;5.930;2023-11-21T14:14:19;10.70;;;5.95;;
49840;SDS011;35738;49.890;5.930;2023-11-21T14:16:46;10.73;;;5.13;;
49840;SDS011;35738;49.890;5.930;2023-11-21T14:19:13;9.88;;;5.13;;
49840;SDS011;35738;49.890;5.930;2023-11-21T14:21:43;10.75;;;5.15;;
49840;SDS011;35738;49.890;5.930;2023-11-21T14:24:10;10.73;;;5.07;;
49840;SDS011;35738;49.890;5.930;2023-11-21T14:26:42;11.48;;;5.40;;
49840;SDS011;35738;49.890;5.930;2023-11-21T14:29:09;11.35;;;4.88;;
49840;SDS011;35738;49.890;5.930;2023-11-21T14:31:38;12.27;;;5.57;;
49840;SDS011;35738;49.890;5.930;2023-11-21T14:34:05;10.20;;;4.90;;
49840;SDS011;35738;49.890;5.930;2023-11-21T14:36:33;9.50;;;4.97;;
49840;SDS011;35738;49.890;5.930;2023-11-21T14:39:00;10.77;;;5.25;;
49840;SDS011;35738;49.890;5.930;2023-11-21T14:41:26;10.73;;;5.20;;
49840;SDS011;35738;49.890;5.930;2023-11-21T14:43:55;12.25;;;5.00;;
49840;SDS011;35738;49.890;5.930;2023-11-21T14:46:23;12.73;;;5.50;;
49840;SDS011;35738;49.890;5.930;2023-11-21T14:48:50;9.70;;;5.22;;
49840;SDS011;35738;49.890;5.930;2023-11-21T14:51:28;7.00;;;4.30;;
49840;SDS011;35738;49.890;5.930;2023-11-21T14:53:57;11.50;;;5.25;;
49840;SDS011;35738;49.890;5.930;2023-11-21T14:56:32;12.82;;;4.60;;